Time;durP1;ratioP1;P1;durP2;ratioP2;P2;SDS_P1;SDS_P2;PMS_P1;PMS_P2;Temp;Humidity;BMP_temperature;BMP_pressure;BME280_temperature;BME280_humidity;BME280_pressure;Samples;Min_cycle;Max_cycle;Signal;HPM_P1;HPM_P2
2022/12/30 00:00:11;;;;;;;;;;;8.80;91.00;;;;;;5033229;28;20285;-87
2022/12/30 00:02:36;;;;;;;;;;;8.70;91.40;;;;;;5033020;28;19987;-87
2022/12/30 00:05:02;;;;;;;;;;;8.80;91.50;;;;;;5033153;28;19937;-87
2022/12/30 00:07:27;;;;;;;;;;;8.80;91.50;;;;;;5033196;28;20296;-87
2022/12/30 00:09:53;;;;;;;;;;;8.90;91.30;;;;;;5033084;28;20052;-87
2022/12/30 00:34:16;;;;;;;;;;;8.90;92.60;;;;;;5033144;28;19970;-86
2022/12/30 00:36:42;;;;;;;;;;;9.00;91.90;;;;;;5032891;28;19938;-86
2022/12/30 00:39:08;;;;;;;;;;;8.90;91.60;;;;;;5032844;28;19937;-87
2022/12/30 00:44:17;;;;;;;;;;;8.90;91.90;;;;;;5032675;28;20007;-87
2022/12/30 00:46:43;;;;;;;;;;;8.90;91.50;;;;;;5032614;28;19947;-86
2022/12/30 00:57:22;;;;;;;;;;;9.00;91.70;;;;;;5036518;28;19945;-87
2022/12/30 00:59:47;;;;;;;;;;;9.00;91.60;;;;;;5036459;28;19948;-87
2022/12/30 01:02:13;;;;;;;;;;;9.00;91.80;;;;;;5036390;28;20454;-87
2022/12/30 01:04:38;;;;;;;;;;;9.00;91.60;;;;;;5036092;28;19991;-87
2022/12/30 01:07:04;;;;;;;;;;;9.00;91.10;;;;;;5036332;28;20416;-87
2022/12/30 01:09:29;;;;;;;;;;;8.90;91.20;;;;;;5036211;28;19996;-87
2022/12/30 01:12:07;;;;;;;;;;;8.70;91.40;;;;;;5036210;28;19940;-87
2022/12/30 01:14:36;;;;;;;;;;;8.70;91.70;;;;;;5035873;28;19955;-87
2022/12/30 01:17:02;;;;;;;;;;;8.80;91.70;;;;;;5036086;28;20031;-87
2022/12/30 01:19:27;;;;;;;;;;;8.80;91.80;;;;;;5036112;28;20460;-87
2022/12/30 01:21:53;;;;;;;;;;;8.90;91.80;;;;;;5036060;28;19995;-87
2022/12/30 01:24:18;;;;;;;;;;;8.90;91.70;;;;;;5034442;28;20391;-87
2022/12/30 01:26:44;;;;;;;;;;;9.10;91.50;;;;;;5035946;28;19944;-87
2022/12/30 01:29:09;;;;;;;;;;;9.10;91.20;;;;;;5035924;28;20041;-87
2022/12/30 01:31:35;;;;;;;;;;;9.00;91.00;;;;;;5035763;28;20090;-87
2022/12/30 01:34:00;;;;;;;;;;;8.70;91.50;;;;;;5035551;28;19975;-88
2022/12/30 01:36:26;;;;;;;;;;;8.70;92.00;;;;;;5035774;28;19991;-87
2022/12/30 01:38:51;;;;;;;;;;;8.80;91.30;;;;;;5034418;28;20365;-87
2022/12/30 01:41:17;;;;;;;;;;;8.70;91.00;;;;;;5035611;28;19954;-87
2022/12/30 01:43:49;;;;;;;;;;;8.60;91.30;;;;;;5035423;28;20399;-87
2022/12/30 01:46:26;;;;;;;;;;;8.40;92.30;;;;;;5035600;28;19941;-87
2022/12/30 01:48:53;;;;;;;;;;;8.40;92.70;;;;;;5035545;28;19968;-87
2022/12/30 01:51:21;;;;;;;;;;;8.40;92.80;;;;;;5035151;28;19941;-87
2022/12/30 01:53:49;;;;;;;;;;;8.60;92.70;;;;;;5035347;28;19990;-87
2022/12/30 01:56:23;;;;;;;;;;;8.50;92.60;;;;;;5035361;28;19945;-87
2022/12/30 01:58:51;;;;;;;;;;;8.70;92.10;;;;;;5035307;28;19937;-86
2022/12/30 02:01:17;;;;;;;;;;;8.70;91.50;;;;;;5035038;28;19947;-87
2022/12/30 02:03:44;;;;;;;;;;;8.50;91.60;;;;;;5035098;28;19942;-87
2022/12/30 02:06:11;;;;;;;;;;;8.40;91.90;;;;;;5035274;28;19950;-87
2022/12/30 02:08:37;;;;;;;;;;;8.40;92.10;;;;;;5035131;28;19943;-87
2022/12/30 02:11:03;;;;;;;;;;;8.20;92.50;;;;;;5034810;28;20064;-87
2022/12/30 02:13:29;;;;;;;;;;;8.10;92.80;;;;;;5034916;28;20010;-87
2022/12/30 02:16:00;;;;;;;;;;;8.10;92.80;;;;;;5034820;28;20452;-87
2022/12/30 02:18:26;;;;;;;;;;;8.10;93.00;;;;;;5035261;28;19964;-87
2022/12/30 02:20:58;;;;;;;;;;;8.30;93.00;;;;;;5034613;28;20415;-87
2022/12/30 02:23:29;;;;;;;;;;;8.40;92.90;;;;;;5022488;28;19958;-87
2022/12/30 02:25:57;;;;;;;;;;;8.30;92.90;;;;;;5015072;28;20381;-87
2022/12/30 02:28:32;;;;;;;;;;;8.30;92.80;;;;;;5014963;28;19968;-87
2022/12/30 02:31:21;;;;;;;;;;;8.30;92.90;;;;;;5023524;28;19960;-87
2022/12/30 02:34:05;;;;;;;;;;;8.20;93.00;;;;;;5034716;28;19943;-87
2022/12/30 02:36:49;;;;;;;;;;;8.30;93.00;;;;;;5034832;28;19938;-87
2022/12/30 02:39:33;;;;;;;;;;;8.50;93.00;;;;;;5034553;28;19940;-87
2022/12/30 02:45:02;;;;;;;;;;;8.80;92.40;;;;;;5034511;28;20351;-87
2022/12/30 02:47:51;;;;;;;;;;;8.90;92.00;;;;;;5034448;28;19971;-87
2022/12/30 02:53:07;;;;;;;;;;;9.10;90.70;;;;;;5034599;28;19993;-87
2022/12/30 02:55:32;;;;;;;;;;;8.80;90.30;;;;;;5034090;28;20381;-86
2022/12/30 02:57:58;;;;;;;;;;;8.60;90.70;;;;;;5034265;28;19945;-87
2022/12/30 03:06:11;;;;;;;;;;;8.40;91.80;;;;;;5034369;28;19948;-87
2022/12/30 03:09:00;;;;;;;;;;;8.30;92.10;;;;;;5033749;28;19940;-87
2022/12/30 03:11:28;;;;;;;;;;;8.30;92.40;;;;;;5033938;28;19966;-87
2022/12/30 03:13:53;;;;;;;;;;;8.50;92.40;;;;;;5033981;28;19946;-87
2022/12/30 03:16:25;;;;;;;;;;;8.70;91.90;;;;;;5058050;23;19979;-87
2022/12/30 03:18:51;;;;;;;;;;;8.80;91.60;;;;;;5053330;28;20348;-87
2022/12/30 03:21:18;;;;;;;;;;;8.70;91.50;;;;;;5053514;28;19987;-87
2022/12/30 03:29:20;;;;;;;;;;;8.40;92.50;;;;;;5053282;28;19952;-87
2022/12/30 03:31:46;;;;;;;;;;;8.30;92.80;;;;;;5053406;28;20007;-87
2022/12/30 03:34:12;;;;;;;;;;;8.40;92.90;;;;;;5053405;28;19959;-87
2022/12/30 03:36:40;;;;;;;;;;;8.60;92.70;;;;;;5053424;28;20398;-87
2022/12/30 03:39:08;;;;;;;;;;;8.70;92.20;;;;;;5053093;28;19946;-87
2022/12/30 03:41:34;;;;;;;;;;;8.60;91.70;;;;;;5053339;28;19939;-87
2022/12/30 03:44:00;;;;;;;;;;;8.40;91.90;;;;;;5035564;28;19947;-87
2022/12/30 03:46:27;;;;;;;;;;;8.40;92.00;;;;;;5053533;28;19937;-87
2022/12/30 03:48:53;;;;;;;;;;;8.30;92.20;;;;;;5052915;28;19948;-87
2022/12/30 03:51:18;;;;;;;;;;;8.10;92.40;;;;;;5053177;28;19961;-87
2022/12/30 03:53:44;;;;;;;;;;;8.00;92.60;;;;;;5069719;28;20494;-87
2022/12/30 03:56:09;;;;;;;;;;;8.00;92.90;;;;;;5073140;28;19941;-87
2022/12/30 03:58:35;;;;;;;;;;;8.00;93.10;;;;;;5072805;28;19942;-87
2022/12/30 04:01:00;;;;;;;;;;;8.00;93.40;;;;;;5073139;28;19942;-87
2022/12/30 04:03:26;;;;;;;;;;;8.10;93.50;;;;;;5073115;28;19936;-87
2022/12/30 04:05:54;;;;;;;;;;;8.30;93.50;;;;;;5073051;28;20286;-87
2022/12/30 04:08:20;;;;;;;;;;;8.50;93.40;;;;;;5072777;28;19947;-87
2022/12/30 04:10:46;;;;;;;;;;;8.80;93.10;;;;;;5072975;28;20074;-87
2022/12/30 04:13:11;;;;;;;;;;;8.90;92.40;;;;;;5054993;28;20329;-87
2022/12/30 04:15:37;;;;;;;;;;;9.00;91.90;;;;;;5072798;28;20059;-87
2022/12/30 04:18:02;;;;;;;;;;;9.00;91.70;;;;;;5072951;28;20033;-87
2022/12/30 04:20:28;;;;;;;;;;;9.00;91.40;;;;;;5072803;28;19950;-87
2022/12/30 04:22:57;;;;;;;;;;;8.80;91.50;;;;;;5072918;28;19990;-87
2022/12/30 04:25:23;;;;;;;;;;;8.60;91.40;;;;;;5072866;28;19940;-87
2022/12/30 04:27:48;;;;;;;;;;;8.40;91.60;;;;;;5074347;28;19976;-87
2022/12/30 04:30:14;;;;;;;;;;;8.30;91.90;;;;;;5076485;28;20049;-87
2022/12/30 04:32:40;;;;;;;;;;;8.10;92.50;;;;;;5076973;28;20326;-87
2022/12/30 04:35:05;;;;;;;;;;;8.10;93.10;;;;;;5076872;28;19946;-87
2022/12/30 04:37:31;;;;;;;;;;;8.10;93.50;;;;;;5076791;28;19940;-87
2022/12/30 04:39:57;;;;;;;;;;;8.40;93.00;;;;;;5076610;28;20026;-87
2022/12/30 04:42:22;;;;;;;;;;;8.40;92.90;;;;;;5076749;28;20318;-87
2022/12/30 04:44:48;;;;;;;;;;;8.30;93.10;;;;;;5076672;28;20305;-87
2022/12/30 04:47:13;;;;;;;;;;;8.20;93.10;;;;;;5076580;28;19932;-86
2022/12/30 04:49:39;;;;;;;;;;;8.20;93.30;;;;;;5076121;28;20001;-87
2022/12/30 04:52:04;;;;;;;;;;;8.10;93.50;;;;;;5076451;28;19953;-87
2022/12/30 04:54:30;;;;;;;;;;;8.10;93.80;;;;;;5076281;28;19967;-87
2022/12/30 04:56:55;;;;;;;;;;;8.20;93.80;;;;;;5076597;28;19949;-87
2022/12/30 04:59:21;;;;;;;;;;;8.40;93.70;;;;;;5058106;28;19996;-87
2022/12/30 05:01:47;;;;;;;;;;;8.60;93.50;;;;;;5076326;28;20001;-87
2022/12/30 05:04:12;;;;;;;;;;;8.70;93.30;;;;;;5076212;28;19940;-87
2022/12/30 05:06:38;;;;;;;;;;;8.80;93.00;;;;;;5076142;28;20010;-87
2022/12/30 05:09:04;;;;;;;;;;;8.80;92.80;;;;;;5075977;28;19973;-87
2022/12/30 05:11:29;;;;;;;;;;;8.80;92.50;;;;;;5076065;28;19965;-87
2022/12/30 05:13:55;;;;;;;;;;;8.50;92.70;;;;;;5076048;28;20299;-87
2022/12/30 05:16:20;;;;;;;;;;;8.50;93.10;;;;;;5075874;28;20460;-87
2022/12/30 05:18:46;;;;;;;;;;;8.80;93.00;;;;;;5075727;28;19950;-87
2022/12/30 05:21:11;;;;;;;;;;;8.90;92.20;;;;;;5075952;28;19945;-87
2022/12/30 05:26:21;;;;;;;;;;;9.00;91.50;;;;;;5075892;28;19949;-87
2022/12/30 05:28:47;;;;;;;;;;;9.10;90.90;;;;;;5075636;28;19940;-87
2022/12/30 05:31:14;;;;;;;;;;;8.80;90.50;;;;;;5075663;28;20037;-86
2022/12/30 05:33:39;;;;;;;;;;;8.60;91.30;;;;;;5075744;28;19993;-87
2022/12/30 05:36:05;;;;;;;;;;;8.50;91.70;;;;;;5075464;28;20381;-87
2022/12/30 05:38:31;;;;;;;;;;;8.40;91.80;;;;;;5075122;28;19945;-87
2022/12/30 05:40:56;;;;;;;;;;;8.40;92.00;;;;;;5075619;28;19980;-87
2022/12/30 05:43:22;;;;;;;;;;;8.40;92.30;;;;;;5075519;28;20026;-87
2022/12/30 05:45:47;;;;;;;;;;;8.30;92.50;;;;;;5075537;28;20346;-87
2022/12/30 05:48:13;;;;;;;;;;;8.40;92.60;;;;;;5075484;28;19943;-87
2022/12/30 05:50:39;;;;;;;;;;;8.40;92.50;;;;;;5075396;28;20104;-87
2022/12/30 05:53:05;;;;;;;;;;;8.40;92.60;;;;;;5075339;28;19960;-87
2022/12/30 05:55:30;;;;;;;;;;;8.30;92.70;;;;;;5075265;28;19962;-87
2022/12/30 05:57:56;;;;;;;;;;;8.30;92.90;;;;;;5075033;28;19993;-87
2022/12/30 06:00:21;;;;;;;;;;;8.30;93.20;;;;;;5075237;28;19942;-87
2022/12/30 06:02:47;;;;;;;;;;;8.30;93.10;;;;;;5075195;28;19941;-87
2022/12/30 06:05:12;;;;;;;;;;;8.10;93.10;;;;;;5075176;28;19944;-87
2022/12/30 06:07:38;;;;;;;;;;;8.00;93.40;;;;;;5074724;28;20013;-87
2022/12/30 06:10:04;;;;;;;;;;;8.00;93.90;;;;;;5074931;28;19958;-87
2022/12/30 06:12:30;;;;;;;;;;;8.00;94.00;;;;;;5075014;28;19945;-87
2022/12/30 06:14:55;;;;;;;;;;;7.90;94.30;;;;;;5074785;28;19980;-87
2022/12/30 06:17:21;;;;;;;;;;;8.00;94.30;;;;;;5074728;28;20400;-87
2022/12/30 06:19:46;;;;;;;;;;;8.10;94.10;;;;;;5074884;28;19942;-87
2022/12/30 06:22:12;;;;;;;;;;;8.10;93.80;;;;;;5074889;28;19941;-87
2022/12/30 06:24:37;;;;;;;;;;;8.00;93.80;;;;;;5074861;28;19937;-87
2022/12/30 06:27:03;;;;;;;;;;;8.10;94.00;;;;;;5074416;28;19941;-87
2022/12/30 06:29:28;;;;;;;;;;;8.00;94.00;;;;;;5074695;28;20304;-87
2022/12/30 06:31:54;;;;;;;;;;;8.00;94.00;;;;;;5072852;28;19961;-87
2022/12/30 06:34:19;;;;;;;;;;;7.90;94.20;;;;;;5072509;28;19949;-87
2022/12/30 06:36:45;;;;;;;;;;;8.10;94.30;;;;;;5056287;28;20422;-87
2022/12/30 06:39:10;;;;;;;;;;;8.40;94.30;;;;;;5074149;28;20386;-87
2022/12/30 06:41:36;;;;;;;;;;;8.40;94.00;;;;;;5074003;28;19950;-87
2022/12/30 06:44:01;;;;;;;;;;;8.40;93.40;;;;;;5073828;28;19958;-87
2022/12/30 06:46:27;;;;;;;;;;;8.30;93.20;;;;;;5074360;28;19940;-87
2022/12/30 06:48:52;;;;;;;;;;;8.10;93.40;;;;;;5074108;28;20036;-87
2022/12/30 06:51:18;;;;;;;;;;;8.10;93.60;;;;;;5072884;28;19976;-87
2022/12/30 06:53:43;;;;;;;;;;;8.00;94.00;;;;;;5072956;28;19940;-87
2022/12/30 06:56:09;;;;;;;;;;;8.10;94.10;;;;;;5073225;28;20008;-86
2022/12/30 06:58:34;;;;;;;;;;;8.20;93.90;;;;;;5074359;28;19998;-87
2022/12/30 07:01:00;;;;;;;;;;;8.30;93.80;;;;;;5073874;28;19956;-87
2022/12/30 07:03:25;;;;;;;;;;;8.40;93.70;;;;;;5074059;28;19941;-87
2022/12/30 07:05:51;;;;;;;;;;;8.40;93.50;;;;;;5073213;28;19947;-87
2022/12/30 07:08:16;;;;;;;;;;;8.40;93.70;;;;;;5073921;28;19942;-87
2022/12/30 07:10:42;;;;;;;;;;;8.60;93.80;;;;;;5073158;28;19956;-87
2022/12/30 07:13:08;;;;;;;;;;;8.60;93.00;;;;;;5071964;28;20392;-87
2022/12/30 07:15:33;;;;;;;;;;;8.60;92.60;;;;;;5073403;28;20386;-87
2022/12/30 07:17:59;;;;;;;;;;;8.50;92.50;;;;;;5072687;28;20355;-87
2022/12/30 07:20:24;;;;;;;;;;;8.40;92.60;;;;;;5073230;28;20413;-87
2022/12/30 07:22:50;;;;;;;;;;;8.40;92.90;;;;;;5073646;28;20475;-87
2022/12/30 07:25:15;;;;;;;;;;;8.30;93.10;;;;;;5072701;28;19947;-87
2022/12/30 07:27:41;;;;;;;;;;;8.40;93.30;;;;;;5072704;28;20447;-87
2022/12/30 07:30:07;;;;;;;;;;;8.50;93.40;;;;;;5073445;28;19958;-87
2022/12/30 07:32:32;;;;;;;;;;;8.60;93.20;;;;;;5073131;28;20085;-87
2022/12/30 07:34:58;;;;;;;;;;;8.70;93.20;;;;;;5067328;28;20310;-87
2022/12/30 07:37:23;;;;;;;;;;;8.60;93.00;;;;;;5073068;28;20421;-87
2022/12/30 07:39:49;;;;;;;;;;;8.50;93.30;;;;;;5072016;28;19948;-87
2022/12/30 07:42:14;;;;;;;;;;;8.50;93.40;;;;;;5072703;28;19987;-87
2022/12/30 07:44:40;;;;;;;;;;;8.70;93.40;;;;;;5073251;28;19938;-87
2022/12/30 07:47:05;;;;;;;;;;;8.80;92.60;;;;;;5072568;28;19949;-87
2022/12/30 07:49:31;;;;;;;;;;;8.70;92.30;;;;;;5067862;28;20308;-87
2022/12/30 07:51:57;;;;;;;;;;;8.50;92.40;;;;;;5073086;28;20375;-87
2022/12/30 07:54:22;;;;;;;;;;;8.40;92.70;;;;;;5072548;28;20428;-87
2022/12/30 07:56:48;;;;;;;;;;;8.40;93.00;;;;;;5072401;28;19944;-87
2022/12/30 07:59:13;;;;;;;;;;;8.30;93.10;;;;;;5072209;28;20212;-87
2022/12/30 08:01:39;;;;;;;;;;;8.30;93.30;;;;;;5072040;28;19998;-87
2022/12/30 08:04:05;;;;;;;;;;;8.30;93.40;;;;;;5071202;28;19948;-87
2022/12/30 08:06:30;;;;;;;;;;;8.30;93.50;;;;;;5072811;28;20348;-87
2022/12/30 08:08:56;;;;;;;;;;;8.30;93.80;;;;;;5072505;28;19938;-87
2022/12/30 08:11:22;;;;;;;;;;;8.40;93.80;;;;;;5071918;28;20342;-87
2022/12/30 08:13:47;;;;;;;;;;;8.50;93.90;;;;;;5072653;28;19960;-87
2022/12/30 08:16:14;;;;;;;;;;;8.50;93.80;;;;;;5072678;28;20449;-87
2022/12/30 08:18:40;;;;;;;;;;;8.50;93.60;;;;;;5072199;28;19951;-87
2022/12/30 08:21:10;;;;;;;;;;;8.50;93.50;;;;;;5072291;28;19945;-87
2022/12/30 08:23:35;;;;;;;;;;;8.50;93.50;;;;;;5072439;28;19998;-87
2022/12/30 08:26:12;;;;;;;;;;;8.40;93.50;;;;;;5073088;28;19938;-87
2022/12/30 08:28:37;;;;;;;;;;;8.40;93.70;;;;;;5072434;28;20415;-86
2022/12/30 08:31:06;;;;;;;;;;;8.50;93.70;;;;;;5072471;28;19994;-87
2022/12/30 08:33:32;;;;;;;;;;;8.70;93.60;;;;;;5072546;28;19950;-87
2022/12/30 08:36:04;;;;;;;;;;;8.70;93.40;;;;;;5072811;28;19962;-87
2022/12/30 08:38:30;;;;;;;;;;;8.80;93.50;;;;;;5072307;28;19976;-87
2022/12/30 08:41:05;;;;;;;;;;;9.10;93.30;;;;;;5068767;28;19942;-87
2022/12/30 08:43:31;;;;;;;;;;;9.00;93.10;;;;;;5072265;28;19965;-87
2022/12/30 08:45:57;;;;;;;;;;;9.30;92.80;;;;;;5070596;28;20398;-87
2022/12/30 08:48:22;;;;;;;;;;;9.40;92.40;;;;;;5066623;28;19950;-87
2022/12/30 08:50:48;;;;;;;;;;;9.40;91.10;;;;;;5068953;28;19965;-87
2022/12/30 08:53:13;;;;;;;;;;;9.20;91.00;;;;;;5068228;28;19956;-87
2022/12/30 08:55:39;;;;;;;;;;;9.00;91.50;;;;;;5070782;28;19972;-87
2022/12/30 08:58:04;;;;;;;;;;;9.00;92.00;;;;;;5070999;28;20020;-87
2022/12/30 09:00:30;;;;;;;;;;;8.90;92.00;;;;;;5071451;28;20048;-87
2022/12/30 09:02:55;;;;;;;;;;;8.90;92.30;;;;;;5070549;28;19954;-87
2022/12/30 09:05:21;;;;;;;;;;;9.10;92.30;;;;;;5070685;28;19953;-87
2022/12/30 09:07:46;;;;;;;;;;;9.30;92.10;;;;;;5071087;28;19954;-87
2022/12/30 09:10:12;;;;;;;;;;;9.40;91.90;;;;;;5060601;28;20067;-87
2022/12/30 09:12:38;;;;;;;;;;;9.50;91.60;;;;;;5067562;28;20353;-87
2022/12/30 09:15:04;;;;;;;;;;;9.60;91.50;;;;;;5074260;28;20030;-87
2022/12/30 09:17:29;;;;;;;;;;;9.80;90.70;;;;;;5075273;28;19944;-87
2022/12/30 09:19:55;;;;;;;;;;;9.90;90.10;;;;;;5050947;28;20315;-87
2022/12/30 09:22:20;;;;;;;;;;;9.80;88.50;;;;;;5072493;28;19953;-87
2022/12/30 09:24:46;;;;;;;;;;;9.60;88.70;;;;;;5074962;28;20305;-87
2022/12/30 09:27:11;;;;;;;;;;;9.60;88.80;;;;;;5071997;28;20402;-87
2022/12/30 09:29:37;;;;;;;;;;;9.60;89.20;;;;;;5075476;28;19944;-87
2022/12/30 09:32:02;;;;;;;;;;;9.60;89.40;;;;;;5067646;28;19954;-87
2022/12/30 09:34:28;;;;;;;;;;;9.50;89.60;;;;;;5056858;28;19981;-87
2022/12/30 09:36:53;;;;;;;;;;;9.70;89.50;;;;;;5073667;28;19943;-87
2022/12/30 09:39:30;;;;;;;;;;;9.90;89.00;;;;;;5069362;28;19946;-87
2022/12/30 09:44:52;;;;;;;;;;;10.10;88.20;;;;;;5070445;28;19987;-87
2022/12/30 09:47:29;;;;;;;;;;;10.20;87.50;;;;;;5067323;28;19951;-87
2022/12/30 09:50:01;;;;;;;;;;;10.30;87.10;;;;;;5067449;28;20009;-87
2022/12/30 09:52:39;;;;;;;;;;;10.30;86.20;;;;;;5069957;28;19974;-88
2022/12/30 09:55:15;;;;;;;;;;;10.20;86.30;;;;;;5070690;28;19940;-88
2022/12/30 09:57:41;;;;;;;;;;;10.30;86.80;;;;;;5072884;28;19945;-87
2022/12/30 10:00:07;;;;;;;;;;;10.20;87.20;;;;;;5071795;28;19966;-87
2022/12/30 10:02:48;;;;;;;;;;;10.10;87.80;;;;;;5070058;28;20338;-87
2022/12/30 10:05:14;;;;;;;;;;;9.90;88.40;;;;;;5070217;28;19946;-87
2022/12/30 10:07:46;;;;;;;;;;;9.90;88.40;;;;;;5068857;28;19939;-87
2022/12/30 10:10:12;;;;;;;;;;;9.80;88.70;;;;;;5073824;28;19967;-87
2022/12/30 10:12:43;;;;;;;;;;;9.90;88.70;;;;;;5074519;28;19949;-87
2022/12/30 10:15:17;;;;;;;;;;;9.90;88.80;;;;;;5073335;28;20044;-87
2022/12/30 10:17:55;;;;;;;;;;;10.00;88.70;;;;;;5074837;28;19942;-87
2022/12/30 10:20:41;;;;;;;;;;;10.00;88.60;;;;;;5070611;28;19973;-87
2022/12/30 10:23:17;;;;;;;;;;;10.20;88.50;;;;;;5074119;28;19945;-87
2022/12/30 10:25:55;;;;;;;;;;;10.40;87.80;;;;;;5062886;28;19981;-87
2022/12/30 10:28:25;;;;;;;;;;;10.60;86.30;;;;;;5071245;28;20019;-88
2022/12/30 10:30:50;;;;;;;;;;;10.60;86.00;;;;;;5067407;28;20000;-87
2022/12/30 10:33:21;;;;;;;;;;;10.40;87.20;;;;;;5065029;28;19984;-87
2022/12/30 10:36:21;;;;;;;;;;;10.10;86.60;;;;;;5070207;28;20003;-87
2022/12/30 10:38:47;;;;;;;;;;;10.00;87.50;;;;;;4982456;28;19949;-87
2022/12/30 10:41:18;;;;;;;;;;;9.90;87.60;;;;;;5054567;28;19941;-87
2022/12/30 10:44:02;;;;;;;;;;;10.10;87.90;;;;;;5071381;28;20015;-87
2022/12/30 10:46:37;;;;;;;;;;;10.00;87.30;;;;;;5065601;28;19943;-87
2022/12/30 10:49:21;;;;;;;;;;;10.30;86.30;;;;;;5069255;28;19944;-87
2022/12/30 10:51:49;;;;;;;;;;;10.50;85.60;;;;;;5072438;28;19955;-87
2022/12/30 10:54:14;;;;;;;;;;;10.60;84.70;;;;;;5072073;28;20403;-87
2022/12/30 10:56:41;;;;;;;;;;;10.70;84.30;;;;;;5071620;28;19975;-87
2022/12/30 10:59:12;;;;;;;;;;;10.70;84.50;;;;;;5072003;28;19995;-87
2022/12/30 11:01:38;;;;;;;;;;;10.80;84.20;;;;;;5069198;28;20000;-87
2022/12/30 11:04:04;;;;;;;;;;;10.80;84.20;;;;;;5068064;28;19959;-86
2022/12/30 11:06:30;;;;;;;;;;;10.90;83.60;;;;;;5070789;28;19946;-87
2022/12/30 11:09:11;;;;;;;;;;;10.70;84.10;;;;;;5070080;28;19943;-87
2022/12/30 11:15:04;;;;;;;;;;;10.70;85.70;;;;;;5062148;23;20004;-87
2022/12/30 11:17:38;;;;;;;;;;;10.70;84.70;;;;;;5050764;28;19950;-87
2022/12/30 11:20:20;;;;;;;;;;;10.80;85.60;;;;;;5040634;28;20448;-87
2022/12/30 11:22:46;;;;;;;;;;;10.80;85.10;;;;;;5053479;28;20058;-87
2022/12/30 11:25:12;;;;;;;;;;;10.80;85.20;;;;;;5049521;28;19947;-87
2022/12/30 11:27:42;;;;;;;;;;;10.90;84.10;;;;;;5048556;28;19940;-87
2022/12/30 11:30:21;;;;;;;;;;;10.90;83.00;;;;;;5049075;28;19959;-87
2022/12/30 11:32:49;;;;;;;;;;;10.90;82.40;;;;;;5049138;28;20269;-87
2022/12/30 11:35:33;;;;;;;;;;;10.80;82.50;;;;;;5048526;28;20005;-87
2022/12/30 11:37:59;;;;;;;;;;;10.80;82.80;;;;;;5049165;28;19938;-87
2022/12/30 11:40:34;;;;;;;;;;;10.90;82.50;;;;;;5049357;28;19949;-87
2022/12/30 11:43:04;;;;;;;;;;;10.90;82.40;;;;;;5050823;28;19997;-88
2022/12/30 11:45:30;;;;;;;;;;;10.90;82.40;;;;;;5053059;28;20442;-87
2022/12/30 11:47:55;;;;;;;;;;;10.90;83.50;;;;;;5053248;28;19991;-87
2022/12/30 11:50:21;;;;;;;;;;;10.70;84.40;;;;;;5053160;28;20326;-87
2022/12/30 11:52:51;;;;;;;;;;;10.60;84.30;;;;;;5061681;28;19998;-87
2022/12/30 11:55:22;;;;;;;;;;;10.50;84.90;;;;;;5073091;28;19950;-87
2022/12/30 11:57:48;;;;;;;;;;;10.50;85.00;;;;;;5073057;28;19984;-87
2022/12/30 12:00:16;;;;;;;;;;;10.70;85.00;;;;;;5073151;28;19943;-87
2022/12/30 12:02:49;;;;;;;;;;;10.80;84.70;;;;;;5073095;28;19945;-87
2022/12/30 12:05:20;;;;;;;;;;;10.90;84.30;;;;;;5072870;28;20389;-87
2022/12/30 12:07:46;;;;;;;;;;;10.90;84.30;;;;;;5072847;28;19944;-87
2022/12/30 12:10:23;;;;;;;;;;;10.80;84.30;;;;;;5073005;28;20010;-87
2022/12/30 12:13:01;;;;;;;;;;;10.80;84.50;;;;;;5073347;28;19941;-87
2022/12/30 12:15:41;;;;;;;;;;;10.90;84.20;;;;;;5068977;28;19982;-87
2022/12/30 12:18:13;;;;;;;;;;;10.90;84.20;;;;;;5062428;28;20445;-87
2022/12/30 12:20:41;;;;;;;;;;;11.00;84.00;;;;;;5072759;28;19947;-87
2022/12/30 12:23:12;;;;;;;;;;;10.80;85.10;;;;;;5073213;28;19946;-87
2022/12/30 12:25:41;;;;;;;;;;;10.40;86.50;;;;;;5072195;28;19950;-87
2022/12/30 12:28:10;;;;;;;;;;;10.40;86.60;;;;;;5072170;28;19958;-87
2022/12/30 12:30:47;;;;;;;;;;;10.40;86.40;;;;;;5072825;28;19958;-87
2022/12/30 12:33:29;;;;;;;;;;;10.40;86.20;;;;;;5072037;28;19947;-87
2022/12/30 12:36:16;;;;;;;;;;;10.60;86.40;;;;;;5071868;28;19941;-88
2022/12/30 12:38:54;;;;;;;;;;;10.70;86.80;;;;;;5072945;28;19944;-87
2022/12/30 12:41:39;;;;;;;;;;;10.80;86.90;;;;;;5072119;28;19946;-87
2022/12/30 12:44:20;;;;;;;;;;;10.90;86.20;;;;;;5071853;28;19946;-87
2022/12/30 12:46:48;;;;;;;;;;;11.00;85.90;;;;;;5072645;28;19977;-87
2022/12/30 12:49:14;;;;;;;;;;;11.20;85.80;;;;;;5069785;28;19944;-87
2022/12/30 12:52:00;;;;;;;;;;;11.30;84.30;;;;;;5072518;28;20348;-87
2022/12/30 12:54:44;;;;;;;;;;;11.30;84.00;;;;;;5057019;28;19952;-87
2022/12/30 12:57:25;;;;;;;;;;;11.20;83.70;;;;;;5076068;28;19946;-87
2022/12/30 13:00:07;;;;;;;;;;;10.90;84.70;;;;;;5060436;28;20288;-87
2022/12/30 13:02:51;;;;;;;;;;;10.80;85.40;;;;;;5054988;28;20046;-87
2022/12/30 13:05:46;;;;;;;;;;;10.70;85.50;;;;;;5072336;28;19952;-87
2022/12/30 13:08:30;;;;;;;;;;;10.70;86.60;;;;;;5054324;28;20421;-87
2022/12/30 13:10:56;;;;;;;;;;;10.40;86.10;;;;;;5075185;28;19969;-87
2022/12/30 13:13:26;;;;;;;;;;;10.40;86.40;;;;;;5076173;28;19946;-87
2022/12/30 13:15:51;;;;;;;;;;;10.40;86.80;;;;;;5075717;28;20565;-87
2022/12/30 13:18:20;;;;;;;;;;;10.50;87.10;;;;;;5076114;28;19980;-87
2022/12/30 13:20:48;;;;;;;;;;;10.60;87.30;;;;;;5075614;28;19946;-87
2022/12/30 13:23:17;;;;;;;;;;;10.70;86.90;;;;;;5076003;28;19936;-87
2022/12/30 13:25:46;;;;;;;;;;;10.80;86.50;;;;;;5057761;28;19954;-88
2022/12/30 13:28:22;;;;;;;;;;;10.90;85.60;;;;;;5075251;28;19946;-88
2022/12/30 13:31:01;;;;;;;;;;;11.00;85.40;;;;;;5075799;28;20230;-88
2022/12/30 13:34:02;;;;;;;;;;;11.00;85.10;;;;;;5074614;28;19953;-87
2022/12/30 13:36:36;;;;;;;;;;;11.10;85.30;;;;;;4968071;28;19948;-87
2022/12/30 13:39:10;;;;;;;;;;;10.90;85.50;;;;;;5046273;28;19944;-87
2022/12/30 13:41:38;;;;;;;;;;;10.90;85.60;;;;;;5075230;28;19985;-87
2022/12/30 13:44:04;;;;;;;;;;;10.90;85.60;;;;;;5074775;28;19986;-87
2022/12/30 13:46:32;;;;;;;;;;;10.90;86.00;;;;;;5062092;28;19976;-87
2022/12/30 13:49:22;;;;;;;;;;;10.90;86.40;;;;;;5058441;28;19956;-87
2022/12/30 13:51:55;;;;;;;;;;;10.90;86.50;;;;;;5075115;28;20022;-87
2022/12/30 13:54:21;;;;;;;;;;;10.90;86.60;;;;;;5074532;28;19953;-87
2022/12/30 13:56:49;;;;;;;;;;;11.00;87.20;;;;;;5072993;28;19957;-87
2022/12/30 13:59:29;;;;;;;;;;;11.10;86.80;;;;;;5055178;28;19948;-87
2022/12/30 14:02:13;;;;;;;;;;;11.20;86.20;;;;;;5074536;28;19941;-87
2022/12/30 14:04:55;;;;;;;;;;;11.40;84.80;;;;;;5075264;28;19978;-87
2022/12/30 14:07:41;;;;;;;;;;;11.30;84.20;;;;;;5075213;28;19946;-87
2022/12/30 14:10:19;;;;;;;;;;;11.20;84.40;;;;;;5074093;28;20011;-87
2022/12/30 14:13:04;;;;;;;;;;;11.10;84.50;;;;;;5073919;28;19942;-87
2022/12/30 14:15:30;;;;;;;;;;;11.00;85.10;;;;;;5056572;28;19973;-87
2022/12/30 14:17:57;;;;;;;;;;;10.90;84.70;;;;;;5074899;28;20386;-87
2022/12/30 14:20:27;;;;;;;;;;;10.90;85.10;;;;;;5073931;28;19981;-87
2022/12/30 14:22:54;;;;;;;;;;;10.90;85.20;;;;;;5074883;28;19938;-87
2022/12/30 14:25:36;;;;;;;;;;;10.90;85.30;;;;;;5074555;28;19943;-87
2022/12/30 14:28:18;;;;;;;;;;;11.10;85.70;;;;;;5070470;28;19952;-87
2022/12/30 14:30:48;;;;;;;;;;;11.30;84.90;;;;;;5061297;28;20070;-87
2022/12/30 14:33:13;;;;;;;;;;;11.40;84.70;;;;;;5065361;28;19971;-88
2022/12/30 14:35:50;;;;;;;;;;;11.30;85.00;;;;;;5070457;28;20403;-87
2022/12/30 14:38:30;;;;;;;;;;;11.20;85.30;;;;;;5068337;28;19984;-87
2022/12/30 14:40:56;;;;;;;;;;;11.20;85.60;;;;;;5060739;28;19982;-87
2022/12/30 14:43:21;;;;;;;;;;;11.10;86.00;;;;;;5067525;28;20004;-87
2022/12/30 14:45:47;;;;;;;;;;;11.10;86.60;;;;;;5064946;28;19944;-87
2022/12/30 14:48:32;;;;;;;;;;;10.90;86.80;;;;;;5061928;28;20427;-87
2022/12/30 14:50:58;;;;;;;;;;;10.80;87.70;;;;;;5040197;28;20267;-87
2022/12/30 14:53:24;;;;;;;;;;;10.70;88.10;;;;;;5070884;28;19947;-87
2022/12/30 14:55:49;;;;;;;;;;;10.60;88.30;;;;;;5066829;28;20364;-87
2022/12/30 14:58:19;;;;;;;;;;;10.70;88.50;;;;;;5069782;28;19942;-87
2022/12/30 15:00:47;;;;;;;;;;;10.70;88.60;;;;;;5064450;28;19942;-87
2022/12/30 15:03:14;;;;;;;;;;;10.60;88.90;;;;;;5067768;28;19939;-87
2022/12/30 15:05:48;;;;;;;;;;;10.60;89.00;;;;;;5067938;28;19939;-87
2022/12/30 15:08:14;;;;;;;;;;;10.60;88.90;;;;;;5065689;28;19945;-87
2022/12/30 15:10:53;;;;;;;;;;;10.50;88.90;;;;;;5067061;28;20019;-87
2022/12/30 15:13:20;;;;;;;;;;;10.40;89.40;;;;;;5071088;28;19996;-87
2022/12/30 15:15:47;;;;;;;;;;;10.40;89.80;;;;;;5068840;28;19981;-87
2022/12/30 15:18:16;;;;;;;;;;;10.30;89.70;;;;;;5071219;28;19947;-87
2022/12/30 15:20:42;;;;;;;;;;;10.20;90.00;;;;;;5053479;28;19956;-88
2022/12/30 15:23:11;;;;;;;;;;;10.20;90.20;;;;;;5066508;28;20073;-87
2022/12/30 15:25:37;;;;;;;;;;;10.20;90.70;;;;;;5053726;28;20403;-87
2022/12/30 15:28:03;;;;;;;;;;;10.20;90.70;;;;;;5048041;28;19955;-87
2022/12/30 15:30:28;;;;;;;;;;;10.10;90.40;;;;;;5067999;28;19956;-87
2022/12/30 15:32:56;;;;;;;;;;;10.10;90.60;;;;;;5066750;28;19952;-87
2022/12/30 15:35:25;;;;;;;;;;;10.00;90.60;;;;;;5062328;28;19993;-87